Pagrindinis puslapis
METAR-TAF:

METAR-TAF

Oro uostai :

Paraguaná, Venesuela

platuma: 11-47N, ilguma: 070-09W, Aukštis: 23 m

METAR: trūkstamas

Laikas: 09:27 (13:27 UTC)

Prognozė

Ataskaita buvo paskelbta 3 valandos ir 27 minutes, ne 10:00 UTC
Prognozė galioja nuo 28 metu 12 UTC su 29 metu 12 UTC
Vėjas 6 kt iš Pietų
Matomumas 10 km arba daugiau
Išsisklaidę debesys ne aukštis 1600 ft
Tapsmas
nuo 28 metu 12 UTC su 28 metu 16 UTC
Vėjas 2 kt iš Rytų
Matomumas 10 km arba daugiau
Mažai debesys ne aukštis 1600 ft
Išsisklaidę debesys ne aukštis 10000 ft

TAF: SVJC 281000Z 2812/2912 19006KT 9999 SCT016 TX32/19Z TN25/09Z BECMG 2812/2816 10002KT 9999 FEW016 SCT100

Orai ataskaitas ir orų prognozės (METAR, TAF).

turimą stotys yra geltonos ir raudonos taškus žemėlapyje.

Perkelti pele per norėdami pamatyti stoties vardą.

Tada spustelėkite, norėdami matyti oro stebėjimo ir prognozės.

Norėdami pakeisti žemėlapį: spustelėkite ant žalios mygtukų su juodo kryžiaus žemyn,; žalią mygtuką su brūkšneliu, jei norite nutolinti; arba žalių rodyklių gretimoms žemėlapius.


METAR-TAF: